Time;durP1;ratioP1;P1;durP2;ratioP2;P2;SDS_P1;SDS_P2;PMS_P1;PMS_P2;Temp;Humidity;BMP_temperature;BMP_pressure;BME280_temperature;BME280_humidity;BME280_pressure;Samples;Min_cycle;Max_cycle;Signal;HPM_P1;HPM_P2
2023/08/08 00:01:42;;;;;;;;;;;13.40;99.90;;;;;;5067869;28;20087;-79
2023/08/08 00:04:10;;;;;;;0.40;0.40;;;13.30;99.90;;;;;;5063467;28;19916;-81
2023/08/08 00:06:36;;;;;;;0.40;0.40;;;13.30;99.90;;;;;;5047093;28;20047;-79
2023/08/08 00:09:03;;;;;;;1.25;1.20;;;13.20;99.90;;;;;;5045269;28;20505;-81
2023/08/08 00:11:30;;;;;;;0.30;0.30;;;13.10;99.90;;;;;;5044755;28;20055;-81
2023/08/08 00:13:56;;;;;;;0.25;0.25;;;13.10;99.90;;;;;;5065364;28;20047;-79
2023/08/08 00:16:22;;;;;;;;;;;13.00;99.90;;;;;;5067616;28;20044;-79
2023/08/08 00:18:50;;;;;;;0.38;0.38;;;13.00;99.90;;;;;;5042770;28;20428;-80
2023/08/08 00:21:16;;;;;;;0.40;0.40;;;13.00;99.90;;;;;;5025855;28;20502;-79
2023/08/08 00:23:45;;;;;;;0.40;0.40;;;13.00;99.90;;;;;;5086952;28;20028;-79
2023/08/08 00:26:11;;;;;;;0.60;0.60;;;13.00;99.90;;;;;;5047059;28;20116;-79
2023/08/08 00:28:38;;;;;;;0.30;0.30;;;13.00;99.90;;;;;;5048426;28;20032;-78
2023/08/08 00:31:06;;;;;;;1.88;0.80;;;13.00;99.90;;;;;;5063610;28;20075;-79
2023/08/08 00:33:31;;;;;;;0.52;0.52;;;13.00;99.90;;;;;;5083784;28;20457;-77
2023/08/08 00:36:03;;;;;;;0.50;0.50;;;13.00;99.90;;;;;;5035162;28;20042;-78
2023/08/08 00:38:31;;;;;;;0.68;0.68;;;13.00;99.90;;;;;;5087456;28;20105;-78
2023/08/08 00:40:57;;;;;;;0.70;0.70;;;13.00;99.90;;;;;;5044718;28;20404;-77
2023/08/08 00:43:23;;;;;;;0.22;0.22;;;12.90;99.90;;;;;;5045594;28;20120;-79
2023/08/08 00:45:49;;;;;;;0.32;0.32;;;12.90;99.90;;;;;;5035987;28;20105;-77
2023/08/08 00:48:15;;;;;;;0.40;0.40;;;12.90;99.90;;;;;;5051085;28;20040;-75
2023/08/08 00:50:42;;;;;;;0.40;0.40;;;12.90;99.90;;;;;;5053516;28;20494;-76
2023/08/08 00:53:08;;;;;;;0.40;0.40;;;12.90;99.90;;;;;;5098043;28;20135;-76
2023/08/08 00:55:35;;;;;;;0.30;0.30;;;12.80;99.90;;;;;;5052007;28;20115;-76
2023/08/08 00:58:01;;;;;;;0.30;0.30;;;12.80;99.90;;;;;;5049446;28;20043;-76
2023/08/08 01:00:27;;;;;;;0.95;0.68;;;12.70;99.90;;;;;;5050327;28;20126;-76
2023/08/08 01:02:53;;;;;;;0.47;0.47;;;12.70;99.90;;;;;;5065739;28;20082;-76
2023/08/08 01:05:19;;;;;;;0.38;0.38;;;12.70;99.90;;;;;;5050196;28;20101;-77
2023/08/08 01:08:06;;;;;;;0.35;0.35;;;12.70;99.90;;;;;;5068978;28;20040;-76
2023/08/08 01:10:40;;;;;;;0.50;0.50;;;12.70;99.90;;;;;;5051211;28;20044;-76
2023/08/08 01:13:22;;;;;;;1.15;1.05;;;12.70;99.90;;;;;;5068053;28;20100;-77
2023/08/08 01:15:49;;;;;;;0.45;0.45;;;12.80;99.90;;;;;;5068941;28;20067;-77
2023/08/08 01:18:17;;;;;;;0.30;0.30;;;12.80;99.90;;;;;;5045791;28;20040;-77
2023/08/08 01:20:45;;;;;;;1.15;1.15;;;12.80;99.90;;;;;;5030757;28;20048;-76
2023/08/08 01:23:14;;;;;;;0.30;0.30;;;12.80;99.90;;;;;;5051067;28;20039;-76
2023/08/08 01:25:40;;;;;;;0.30;0.30;;;12.80;99.90;;;;;;5051118;28;20039;-77
2023/08/08 01:28:07;;;;;;;0.47;0.47;;;12.70;99.90;;;;;;5053051;28;20036;-77
2023/08/08 01:30:33;;;;;;;0.63;0.63;;;12.70;99.90;;;;;;5048082;28;20509;-76
2023/08/08 01:32:59;;;;;;;0.40;0.40;;;12.80;99.90;;;;;;5017180;28;20773;-78
2023/08/08 01:35:29;;;;;;;0.77;0.57;;;12.80;99.90;;;;;;5069148;28;20040;-79
2023/08/08 01:38:04;;;;;;;0.73;0.73;;;12.80;99.90;;;;;;5068938;28;20033;-78
2023/08/08 01:40:30;;;;;;;0.25;0.25;;;12.80;99.90;;;;;;5050649;28;20044;-78
2023/08/08 01:42:57;;;;;;;0.35;0.35;;;12.90;99.90;;;;;;5069178;28;20040;-78
2023/08/08 01:45:24;;;;;;;1.15;0.55;;;12.90;99.90;;;;;;5051185;28;20040;-78
2023/08/08 01:47:54;;;;;;;0.43;0.43;;;12.90;99.90;;;;;;5065987;28;20044;-78
2023/08/08 01:50:21;;;;;;;0.50;0.50;;;13.00;99.90;;;;;;5036700;28;20048;-79
2023/08/08 01:52:47;;;;;;;0.30;0.30;;;13.10;99.90;;;;;;5067630;28;20489;-78
2023/08/08 01:55:13;;;;;;;0.40;0.40;;;13.10;99.90;;;;;;5065404;28;20509;-79
2023/08/08 01:57:39;;;;;;;0.35;0.35;;;13.20;99.90;;;;;;5036998;28;20040;-78
2023/08/08 02:00:05;;;;;;;;;;;13.20;99.90;;;;;;5069284;28;20123;-79
2023/08/08 02:02:31;;;;;;;0.30;0.30;;;13.20;99.90;;;;;;5043259;28;19965;-78
2023/08/08 02:04:58;;;;;;;0.30;0.30;;;13.30;99.90;;;;;;5032314;28;20044;-77
2023/08/08 02:07:24;;;;;;;0.40;0.40;;;13.30;99.90;;;;;;5021947;28;20126;-78
2023/08/08 02:09:50;;;;;;;0.20;0.20;;;13.40;99.90;;;;;;5049411;28;20170;-76
2023/08/08 02:12:16;;;;;;;0.47;0.47;;;12.80;99.90;;;;;;5033653;28;20059;-77
2023/08/08 02:14:42;;;;;;;0.30;0.30;;;13.40;99.90;;;;;;5068970;28;20047;-77
2023/08/08 02:17:08;;;;;;;0.35;0.35;;;13.50;99.90;;;;;;5071581;28;20036;-78
2023/08/08 02:19:34;;;;;;;0.30;0.30;;;13.40;99.90;;;;;;5050410;28;20044;-79
2023/08/08 02:21:59;;;;;;;0.40;0.40;;;13.50;99.90;;;;;;5033620;28;20044;-79
2023/08/08 02:24:25;;;;;;;1.90;1.75;;;13.50;99.90;;;;;;5065642;28;20093;-78
2023/08/08 02:26:51;;;;;;;0.30;0.30;;;13.50;99.90;;;;;;5033348;28;20044;-80
2023/08/08 02:29:16;;;;;;;;;;;13.50;99.90;;;;;;5050953;28;20036;-80
2023/08/08 02:31:42;;;;;;;0.40;0.40;;;13.50;99.90;;;;;;5048450;28;20385;-80
2023/08/08 02:34:09;;;;;;;0.30;0.30;;;13.50;99.90;;;;;;5047668;28;20132;-81
2023/08/08 02:36:36;;;;;;;0.47;0.47;;;13.50;99.90;;;;;;5049586;28;20067;-79
2023/08/08 02:39:06;;;;;;;0.30;0.30;;;13.50;99.90;;;;;;5051484;28;20044;-80
2023/08/08 02:41:31;;;;;;;0.32;0.32;;;13.40;99.90;;;;;;5023168;28;20090;-80
2023/08/08 02:43:57;;;;;;;0.60;0.60;;;13.40;99.90;;;;;;5012885;28;20044;-79
2023/08/08 02:46:23;;;;;;;0.40;0.40;;;13.30;99.90;;;;;;5049514;28;20126;-79
2023/08/08 02:48:48;;;;;;;0.65;0.65;;;13.30;99.90;;;;;;5015005;28;20044;-79
2023/08/08 02:51:14;;;;;;;0.57;0.57;;;13.30;99.90;;;;;;5031530;28;20079;-79
2023/08/08 02:53:40;;;;;;;0.32;0.32;;;13.40;99.90;;;;;;5034230;28;20040;-77
2023/08/08 02:56:06;;;;;;;0.50;0.50;;;13.40;99.90;;;;;;5026337;28;20458;-77
2023/08/08 02:58:31;;;;;;;0.30;0.30;;;13.40;99.90;;;;;;5046798;28;20043;-78
2023/08/08 03:00:57;;;;;;;0.80;0.80;;;13.40;99.90;;;;;;5012285;28;20040;-77
2023/08/08 03:03:23;;;;;;;0.30;0.30;;;13.40;99.90;;;;;;5016058;28;20059;-77
2023/08/08 03:05:49;;;;;;;0.68;0.57;;;13.50;99.90;;;;;;5046338;28;20047;-77
2023/08/08 03:08:15;;;;;;;0.40;0.40;;;13.40;99.90;;;;;;5048806;28;20039;-78
2023/08/08 03:10:41;;;;;;;0.50;0.50;;;13.40;99.90;;;;;;5046462;28;20040;-79
2023/08/08 03:13:07;;;;;;;0.25;0.25;;;13.40;99.90;;;;;;5051055;28;20052;-75
2023/08/08 03:15:32;;;;;;;;;;;13.40;99.90;;;;;;5056065;28;20036;-77
2023/08/08 03:17:58;;;;;;;0.40;0.40;;;13.30;99.90;;;;;;5049023;28;19920;-78
2023/08/08 03:20:24;;;;;;;1.63;0.43;;;13.30;99.90;;;;;;5062741;28;20083;-78
2023/08/08 03:22:49;;;;;;;0.35;0.35;;;13.30;99.90;;;;;;5063633;28;20406;-79
2023/08/08 03:25:15;;;;;;;0.70;0.70;;;13.20;99.90;;;;;;5058948;28;20048;-79
2023/08/08 03:27:42;;;;;;;0.63;0.63;;;13.20;99.90;;;;;;5015620;28;20478;-80
2023/08/08 03:30:08;;;;;;;3.75;3.40;;;13.20;99.90;;;;;;5044974;28;20099;-76
2023/08/08 03:32:34;;;;;;;0.40;0.40;;;13.20;99.90;;;;;;5031021;28;20044;-77
2023/08/08 03:35:00;;;;;;;0.40;0.40;;;13.20;99.90;;;;;;5042863;28;20041;-78
2023/08/08 03:37:25;;;;;;;1.05;1.05;;;13.20;99.90;;;;;;5026492;28;20047;-77
2023/08/08 03:39:51;;;;;;;0.30;0.30;;;13.20;99.90;;;;;;5049416;28;20024;-77
2023/08/08 03:42:17;;;;;;;0.50;0.50;;;13.10;99.90;;;;;;5043466;28;20482;-77
2023/08/08 03:44:45;;;;;;;0.43;0.43;;;13.10;99.90;;;;;;5043302;28;20051;-79
2023/08/08 03:47:10;;;;;;;0.50;0.50;;;13.10;99.90;;;;;;5022718;28;20055;-78
2023/08/08 03:49:37;;;;;;;0.70;0.70;;;13.40;99.90;;;;;;5015361;28;20386;-78
2023/08/08 03:52:03;;;;;;;6.05;1.13;;;13.10;99.90;;;;;;5036169;28;20381;-78
2023/08/08 03:54:29;;;;;;;0.90;0.80;;;13.10;99.90;;;;;;5046306;28;20087;-78
2023/08/08 03:56:55;;;;;;;0.68;0.68;;;13.00;99.90;;;;;;5014697;28;20032;-77
2023/08/08 03:59:22;;;;;;;0.50;0.50;;;13.00;99.90;;;;;;5046067;28;20032;-79
2023/08/08 04:01:48;;;;;;;0.35;0.35;;;13.00;99.90;;;;;;5058689;28;20037;-78
2023/08/08 04:04:14;;;;;;;0.40;0.40;;;12.90;99.90;;;;;;5048838;28;20040;-77
2023/08/08 04:06:41;;;;;;;0.20;0.20;;;12.90;99.90;;;;;;5061956;28;20055;-77
2023/08/08 04:09:08;;;;;;;2.03;1.38;;;13.00;99.90;;;;;;5008943;28;20565;-77
2023/08/08 04:11:35;;;;;;;3.70;0.40;;;12.90;99.90;;;;;;5064614;28;20118;-79
2023/08/08 04:14:02;;;;;;;0.30;0.30;;;12.90;99.90;;;;;;5048563;28;20040;-78
2023/08/08 04:16:28;;;;;;;0.40;0.40;;;12.90;99.90;;;;;;5047883;28;20044;-77
2023/08/08 04:18:54;;;;;;;0.35;0.35;;;12.90;99.90;;;;;;5033516;28;20043;-77
2023/08/08 04:21:23;;;;;;;0.40;0.40;;;12.90;99.90;;;;;;5060057;28;20060;-78
2023/08/08 04:23:49;;;;;;;0.40;0.40;;;12.90;99.90;;;;;;5028712;28;20503;-77
2023/08/08 04:26:15;;;;;;;0.40;0.40;;;12.90;99.90;;;;;;5015785;28;20048;-77
2023/08/08 04:28:41;;;;;;;0.38;0.38;;;12.90;99.90;;;;;;5013809;28;20474;-78
2023/08/08 04:31:06;;;;;;;0.28;0.28;;;12.90;99.90;;;;;;5045135;28;20137;-80
2023/08/08 04:33:32;;;;;;;0.30;0.30;;;12.90;99.90;;;;;;5048063;28;20041;-79
2023/08/08 04:35:58;;;;;;;0.40;0.40;;;12.90;99.90;;;;;;5049620;28;20478;-78
2023/08/08 04:38:24;;;;;;;0.50;0.50;;;13.00;99.90;;;;;;5030179;28;20041;-79
2023/08/08 04:40:50;;;;;;;0.40;0.40;;;13.00;99.90;;;;;;5050011;28;20036;-78
2023/08/08 04:43:16;;;;;;;0.52;0.52;;;13.00;99.90;;;;;;5034903;28;20040;-77
2023/08/08 04:45:41;;;;;;;;;;;13.10;99.90;;;;;;5034854;28;20163;-78
2023/08/08 04:48:07;;;;;;;0.40;0.40;;;13.10;99.90;;;;;;5032619;28;19983;-77
2023/08/08 04:50:33;;;;;;;0.60;0.60;;;13.20;99.90;;;;;;5025680;28;20052;-78
2023/08/08 04:52:58;;;;;;;0.50;0.50;;;13.30;99.90;;;;;;5032569;28;20535;-79
2023/08/08 04:55:24;;;;;;;0.30;0.30;;;13.40;99.90;;;;;;5063008;28;20040;-78
2023/08/08 04:57:50;;;;;;;0.30;0.30;;;13.40;99.90;;;;;;5047565;28;20033;-78
2023/08/08 05:00:16;;;;;;;0.47;0.47;;;13.50;99.90;;;;;;5055834;28;20039;-77
2023/08/08 05:02:42;;;;;;;;;;;13.50;99.90;;;;;;5040900;28;20124;-76
2023/08/08 05:05:09;;;;;;;0.82;0.82;;;13.60;99.90;;;;;;5059980;28;20409;-78
2023/08/08 05:07:37;;;;;;;0.30;0.30;;;13.60;99.90;;;;;;5028951;28;20040;-78
2023/08/08 05:10:04;;;;;;;0.30;0.30;;;13.60;99.90;;;;;;5029183;28;20803;-78
2023/08/08 05:12:29;;;;;;;0.35;0.35;;;13.60;99.90;;;;;;5047227;28;20041;-78
2023/08/08 05:14:55;;;;;;;0.40;0.40;;;13.70;99.90;;;;;;5068565;28;20044;-77
2023/08/08 05:17:21;;;;;;;0.65;0.65;;;13.70;99.90;;;;;;5067140;28;20208;-78
2023/08/08 05:19:46;;;;;;;0.82;0.82;;;13.80;99.90;;;;;;5031048;28;20040;-78
2023/08/08 05:22:12;;;;;;;0.30;0.30;;;13.80;99.90;;;;;;5047471;28;20098;-76
2023/08/08 05:24:38;;;;;;;0.40;0.40;;;13.80;99.90;;;;;;5026800;28;20094;-80
2023/08/08 05:27:04;;;;;;;0.32;0.32;;;13.80;99.90;;;;;;5044611;28;20037;-78
2023/08/08 05:29:30;;;;;;;0.45;0.45;;;13.90;99.90;;;;;;5019072;28;20037;-79
2023/08/08 05:31:55;;;;;;;0.40;0.40;;;14.00;99.90;;;;;;5043616;28;20581;-79
2023/08/08 05:34:24;;;;;;;0.35;0.35;;;14.00;99.90;;;;;;5059631;28;20085;-83
2023/08/08 05:36:50;;;;;;;0.45;0.45;;;14.40;99.90;;;;;;5041636;28;20078;-80
2023/08/08 05:39:16;;;;;;;0.32;0.32;;;14.10;99.90;;;;;;5021028;28;20410;-77
2023/08/08 05:41:41;;;;;;;;;;;14.20;99.90;;;;;;5061607;28;20490;-78
2023/08/08 05:44:07;;;;;;;0.40;0.40;;;14.20;99.90;;;;;;5039837;28;19983;-78
2023/08/08 05:46:33;;;;;;;0.60;0.60;;;14.20;99.90;;;;;;5044877;28;20044;-78
2023/08/08 05:48:58;;;;;;;0.30;0.30;;;14.10;99.90;;;;;;5028433;28;20565;-78
2023/08/08 05:51:24;;;;;;;0.40;0.40;;;14.20;99.90;;;;;;5051525;28;20056;-78
2023/08/08 05:53:50;;;;;;;0.75;0.75;;;14.20;99.90;;;;;;5039272;28;20399;-81
2023/08/08 05:56:15;;;;;;;0.30;0.30;;;14.20;99.90;;;;;;5031817;28;20469;-79
2023/08/08 05:58:42;;;;;;;0.30;0.30;;;14.30;99.90;;;;;;5043973;28;20044;-80
2023/08/08 06:01:11;;;;;;;0.40;0.40;;;14.30;99.90;;;;;;5055119;28;20041;-78
2023/08/08 06:03:37;;;;;;;0.30;0.30;;;14.30;99.90;;;;;;5013100;28;20049;-81
2023/08/08 06:06:04;;;;;;;;;;;14.30;99.90;;;;;;5071047;28;20040;-77
2023/08/08 06:08:31;;;;;;;0.40;0.40;;;14.40;99.90;;;;;;5023633;28;19920;-78
2023/08/08 06:10:57;;;;;;;0.30;0.30;;;14.50;99.90;;;;;;5063478;28;20090;-77
2023/08/08 06:13:23;;;;;;;0.40;0.40;;;14.50;99.90;;;;;;5025695;28;20734;-76
2023/08/08 06:15:48;;;;;;;0.40;0.40;;;14.60;99.90;;;;;;5053502;28;20048;-77
2023/08/08 06:18:15;;;;;;;0.40;0.40;;;14.60;99.90;;;;;;5043766;28;20037;-77
2023/08/08 06:20:41;;;;;;;0.35;0.35;;;14.70;99.90;;;;;;5019762;28;20044;-77
2023/08/08 06:23:07;;;;;;;1.77;1.30;;;14.70;99.90;;;;;;5032726;28;20036;-78
2023/08/08 06:25:33;;;;;;;0.22;0.22;;;14.80;99.90;;;;;;5036513;28;20043;-77
2023/08/08 06:27:59;;;;;;;0.30;0.30;;;14.90;99.90;;;;;;5065185;28;20036;-77
2023/08/08 06:30:25;;;;;;;0.50;0.50;;;14.90;99.90;;;;;;5047938;28;20481;-77
2023/08/08 06:32:52;;;;;;;0.45;0.45;;;15.00;99.90;;;;;;5067858;28;20048;-78
2023/08/08 06:35:18;;;;;;;0.30;0.30;;;15.10;99.90;;;;;;5037074;28;20036;-78
2023/08/08 06:37:44;;;;;;;0.30;0.30;;;15.20;99.90;;;;;;5048272;28;20577;-77
2023/08/08 06:40:11;;;;;;;0.30;0.30;;;15.20;99.90;;;;;;5066539;28;20040;-77
2023/08/08 06:42:36;;;;;;;0.30;0.30;;;15.30;99.90;;;;;;5047039;28;20176;-76
2023/08/08 06:45:02;;;;;;;0.52;0.52;;;15.40;99.90;;;;;;5065347;28;20127;-75
2023/08/08 06:47:28;;;;;;;;;;;15.50;99.90;;;;;;5062488;28;20115;-76
2023/08/08 06:49:54;;;;;;;0.30;0.30;;;15.60;99.90;;;;;;5047460;28;20377;-78
2023/08/08 06:52:22;;;;;;;0.32;0.32;;;15.80;99.90;;;;;;5052588;28;20036;-77
2023/08/08 06:54:47;;;;;;;0.25;0.25;;;15.80;99.90;;;;;;5060559;28;20082;-77
2023/08/08 06:57:13;;;;;;;0.60;0.60;;;15.90;99.90;;;;;;5065294;28;20036;-76
2023/08/08 06:59:39;;;;;;;0.75;0.75;;;;;;;;;;5046353;28;20032;-76
2023/08/08 07:02:05;;;;;;;;;;;16.10;99.90;;;;;;5034080;28;20040;-77
2023/08/08 07:04:31;;;;;;;0.30;0.30;;;;;;;;;;5067719;28;20328;-79
2023/08/08 07:06:57;;;;;;;0.45;0.45;;;;;;;;;;5069153;28;20118;-78
2023/08/08 07:09:23;;;;;;;;;;;;;;;;;;5065237;28;20041;-80
2023/08/08 07:11:49;;;;;;;0.52;0.52;;;;;;;;;;5067423;28;19920;-78
2023/08/08 07:14:15;;;;;;;;;;;;;;;;;;5049008;28;20044;-82
2023/08/08 07:16:41;;;;;;;0.30;0.30;;;;;;;;;;5067922;28;19927;-77
2023/08/08 07:19:07;;;;;;;;;;;;;;;;;;5049151;28;20142;-79
2023/08/08 07:21:35;;;;;;;0.28;0.28;;;;;;;;;;5049494;28;20014;-78
2023/08/08 07:24:02;;;;;;;0.47;0.47;;;;;;;;;;5035383;28;20386;-77
2023/08/08 07:26:28;;;;;;;0.40;0.40;;;;;;;;;;5046822;28;20389;-78
2023/08/08 07:28:54;;;;;;;;;;;;;;;;;;5048176;28;20041;-78
2023/08/08 07:31:22;;;;;;;0.68;0.68;;;;;;;;;;5063164;28;19931;-79
2023/08/08 07:33:48;;;;;;;0.30;0.30;;;;;;;;;;5067158;28;20123;-77
2023/08/08 07:36:14;;;;;;;;;;;;;;;;;;5049444;28;20044;-78
2023/08/08 07:38:40;;;;;;;0.32;0.32;;;;;;;;;;5050273;28;19931;-78
2023/08/08 07:41:06;;;;;;;;;;;;;;;;;;5048882;28;20204;-78
2023/08/08 07:43:33;;;;;;;0.20;0.20;;;;;;;;;;5068510;28;20069;-79
2023/08/08 07:45:59;;;;;;;0.30;0.30;;;;;;;;;;5045473;28;20482;-77
2023/08/08 07:48:25;;;;;;;;;;;17.90;99.90;;;;;;5049981;28;20044;-78
2023/08/08 07:50:50;;;;;;;0.20;0.20;;;17.90;99.90;;;;;;5055902;28;19919;-77
2023/08/08 07:53:16;;;;;;;;;;;17.90;99.90;;;;;;5049178;28;20070;-77
2023/08/08 07:55:42;;;;;;;0.35;0.35;;;17.90;99.90;;;;;;5063408;28;20396;-78
2023/08/08 07:58:07;;;;;;;;;;;17.90;99.90;;;;;;5055724;28;20040;-78
2023/08/08 08:00:33;;;;;;;0.28;0.28;;;17.80;99.90;;;;;;5054571;28;19920;-76
2023/08/08 08:02:59;;;;;;;;;;;17.60;99.90;;;;;;5056711;28;20039;-78
2023/08/08 08:05:24;;;;;;;0.30;0.30;;;17.50;99.90;;;;;;5036196;28;19924;-79
2023/08/08 08:07:51;;;;;;;1.30;1.20;;;17.50;99.90;;;;;;5054224;28;20424;-79
2023/08/08 08:10:17;;;;;;;0.35;0.35;;;17.70;99.90;;;;;;5049714;28;20070;-77
2023/08/08 08:12:43;;;;;;;0.50;0.50;;;17.70;99.90;;;;;;5046762;28;20032;-78
2023/08/08 08:15:09;;;;;;;;;;;17.80;99.90;;;;;;5053724;28;20044;-76
2023/08/08 08:17:35;;;;;;;0.30;0.30;;;17.90;99.90;;;;;;5052104;28;20400;-79
2023/08/08 08:20:05;;;;;;;;;;;18.00;99.90;;;;;;5064711;28;20062;-78
2023/08/08 08:22:31;;;;;;;0.25;0.25;;;18.00;99.90;;;;;;5055090;28;19920;-77
2023/08/08 08:24:58;;;;;;;0.30;0.30;;;17.90;99.90;;;;;;5055129;28;20047;-78
2023/08/08 08:27:24;;;;;;;0.20;0.20;;;17.90;99.90;;;;;;5039055;28;20156;-79
2023/08/08 08:29:49;;;;;;;;;;;17.80;99.90;;;;;;5050045;28;20049;-77
2023/08/08 08:32:15;;;;;;;0.40;0.40;;;17.90;99.90;;;;;;5039003;28;19923;-77
2023/08/08 08:34:44;;;;;;;;;;;17.90;99.90;;;;;;5072188;28;20066;-78
2023/08/08 08:37:09;;;;;;;0.30;0.30;;;17.90;99.90;;;;;;5051065;28;19971;-78
2023/08/08 08:39:35;;;;;;;;;;;17.80;99.90;;;;;;5054923;28;20075;-76
2023/08/08 08:42:04;;;;;;;0.32;0.32;;;17.70;99.90;;;;;;5073580;28;19962;-79
2023/08/08 08:44:34;;;;;;;0.30;0.30;;;17.60;99.90;;;;;;5057135;28;20075;-77
2023/08/08 08:47:02;;;;;;;0.30;0.30;;;17.40;99.90;;;;;;5072747;28;20501;-78
2023/08/08 08:49:30;;;;;;;0.30;0.30;;;17.30;99.90;;;;;;5052682;28;20036;-78
2023/08/08 08:52:00;;;;;;;0.30;0.30;;;17.20;99.90;;;;;;5056141;28;20036;-77
2023/08/08 08:54:29;;;;;;;0.45;0.45;;;17.20;99.90;;;;;;5056354;28;20035;-78
2023/08/08 08:56:56;;;;;;;0.20;0.20;;;17.20;99.90;;;;;;5068755;28;20051;-77
2023/08/08 08:59:22;;;;;;;0.40;0.40;;;17.40;99.90;;;;;;5071086;28;20039;-77
2023/08/08 09:01:50;;;;;;;0.30;0.30;;;17.70;99.90;;;;;;5070365;28;20398;-78
2023/08/08 09:04:18;;;;;;;0.40;0.40;;;17.70;99.90;;;;;;5088134;28;20048;-76
2023/08/08 09:06:45;;;;;;;0.28;0.28;;;17.70;99.90;;;;;;5053177;28;20127;-77
2023/08/08 09:09:12;;;;;;;1.20;1.17;;;17.60;99.90;;;;;;5068764;28;20397;-76
2023/08/08 09:11:40;;;;;;;0.30;0.30;;;17.50;99.90;;;;;;5065472;28;20108;-77
2023/08/08 09:14:19;;;;;;;0.30;0.30;;;17.70;99.90;;;;;;5030326;28;20047;-79
2023/08/08 09:16:46;;;;;;;0.40;0.40;;;17.90;99.90;;;;;;5065324;28;20052;-78
2023/08/08 09:19:13;;;;;;;0.32;0.30;;;17.90;99.90;;;;;;5059647;28;20040;-78
2023/08/08 09:21:39;;;;;;;0.30;0.30;;;17.80;99.90;;;;;;5068423;28;20059;-76
2023/08/08 09:24:05;;;;;;;0.20;0.20;;;17.70;99.90;;;;;;5053652;28;20044;-79
2023/08/08 09:26:31;;;;;;;0.20;0.20;;;17.70;99.90;;;;;;5054851;28;20044;-78
2023/08/08 09:28:57;;;;;;;0.30;0.30;;;17.70;99.90;;;;;;5068709;28;20040;-78
2023/08/08 09:31:27;;;;;;;0.30;0.30;;;17.80;99.90;;;;;;5048893;28;21410;-79
2023/08/08 09:34:01;;;;;;;0.30;0.30;;;17.90;99.90;;;;;;5046323;28;20045;-80
2023/08/08 09:36:27;;;;;;;0.30;0.30;;;18.00;99.90;;;;;;5067657;28;20047;-79
2023/08/08 09:38:54;;;;;;;0.20;0.20;;;18.30;99.90;;;;;;5047228;28;20044;-77
2023/08/08 09:41:23;;;;;;;0.40;0.40;;;19.20;99.90;;;;;;5066641;28;20074;-78
2023/08/08 09:43:52;;;;;;;0.55;0.55;;;18.70;99.90;;;;;;5063409;28;20055;-78
2023/08/08 09:46:22;;;;;;;0.38;0.38;;;18.80;99.90;;;;;;5084613;28;20087;-78
2023/08/08 09:48:48;;;;;;;0.30;0.30;;;18.80;99.90;;;;;;5051188;28;20070;-78
2023/08/08 09:51:14;;;;;;;0.68;0.68;;;18.80;99.90;;;;;;5032588;28;20089;-79
2023/08/08 09:53:41;;;;;;;0.20;0.20;;;19.00;99.90;;;;;;5066492;28;20051;-78
2023/08/08 09:56:07;;;;;;;0.30;0.30;;;19.10;99.90;;;;;;5068071;28;20032;-77
2023/08/08 09:58:33;;;;;;;0.30;0.30;;;19.00;99.90;;;;;;5049540;28;20036;-78
2023/08/08 10:01:00;;;;;;;0.20;0.20;;;18.70;99.90;;;;;;5066597;28;20119;-78
2023/08/08 10:03:29;;;;;;;0.38;0.38;;;18.50;99.90;;;;;;5067547;28;20093;-80
2023/08/08 10:05:55;;;;;;;0.30;0.30;;;18.10;99.90;;;;;;5063701;28;20052;-78
2023/08/08 10:08:21;;;;;;;0.38;0.38;;;17.50;99.90;;;;;;5051452;28;20397;-78
2023/08/08 10:10:49;;;;;;;0.40;0.40;;;17.00;99.90;;;;;;5051466;28;20079;-77
2023/08/08 10:13:34;;;;;;;0.30;0.30;;;16.50;99.90;;;;;;5062253;28;20098;-79
2023/08/08 10:16:07;;;;;;;0.30;0.30;;;16.10;99.90;;;;;;5068294;28;20035;-81
2023/08/08 10:18:33;;;;;;;0.20;0.20;;;15.80;99.90;;;;;;5050526;28;20473;-78
2023/08/08 10:20:59;;;;;;;0.30;0.30;;;15.70;99.90;;;;;;5052463;28;20155;-79
2023/08/08 10:23:37;;;;;;;0.60;0.60;;;15.70;99.90;;;;;;5036595;28;20040;-77
2023/08/08 10:26:03;;;;;;;0.50;0.50;;;15.90;99.90;;;;;;5067642;28;20047;-77
2023/08/08 10:28:31;;;;;;;0.40;0.40;;;16.00;99.90;;;;;;5049561;28;20048;-77
2023/08/08 10:30:59;;;;;;;0.32;0.32;;;16.10;99.90;;;;;;5061917;28;20040;-77
2023/08/08 10:33:39;;;;;;;0.30;0.30;;;16.20;99.90;;;;;;5046360;28;20044;-77
2023/08/08 10:36:09;;;;;;;0.40;0.40;;;16.30;99.90;;;;;;5062618;28;20428;-77
2023/08/08 10:38:50;;;;;;;0.30;0.30;;;16.40;99.90;;;;;;5069027;28;20044;-77
2023/08/08 10:41:18;;;;;;;0.20;0.20;;;16.70;99.90;;;;;;5070127;28;20055;-78
2023/08/08 10:43:57;;;;;;;0.30;0.30;;;16.90;99.90;;;;;;5068631;28;20035;-77
2023/08/08 10:46:31;;;;;;;3.30;0.60;;;17.20;99.90;;;;;;5029395;28;20047;-79
2023/08/08 10:49:02;;;;;;;0.30;0.30;;;17.40;99.90;;;;;;5054785;28;20174;-78
2023/08/08 10:51:36;;;;;;;0.20;0.20;;;17.70;99.90;;;;;;5047841;28;20093;-77
2023/08/08 10:54:07;;;;;;;0.40;0.40;;;17.90;99.90;;;;;;5066179;28;20062;-78
2023/08/08 10:56:35;;;;;;;0.20;0.20;;;18.10;99.90;;;;;;5048058;28;20043;-79
2023/08/08 10:59:16;;;;;;;0.30;0.30;;;18.20;99.90;;;;;;5069620;28;20050;-78
2023/08/08 11:01:50;;;;;;;0.20;0.20;;;18.40;99.90;;;;;;5065475;28;20086;-78
2023/08/08 11:04:20;;;;;;;0.30;0.30;;;18.70;99.90;;;;;;5040990;28;20393;-75
2023/08/08 11:06:48;;;;;;;2.47;0.50;;;18.90;99.90;;;;;;5041519;28;20047;-77
2023/08/08 11:09:15;;;;;;;0.50;0.50;;;19.10;99.90;;;;;;5067729;28;20048;-77
2023/08/08 11:11:43;;;;;;;0.20;0.20;;;19.10;99.90;;;;;;5060788;28;20044;-77
2023/08/08 11:14:22;;;;;;;0.40;0.40;;;18.90;99.90;;;;;;5063210;28;20083;-77
2023/08/08 11:16:50;;;;;;;0.20;0.20;;;18.70;99.90;;;;;;5061366;28;20477;-77
2023/08/08 11:19:16;;;;;;;0.77;0.77;;;18.70;99.90;;;;;;5069126;28;20378;-79
2023/08/08 11:21:43;;;;;;;;;;;18.70;99.90;;;;;;5067756;28;20097;-78
2023/08/08 11:24:11;;;;;;;0.20;0.20;;;18.80;99.90;;;;;;5060472;28;19920;-77
2023/08/08 11:26:37;;;;;;;0.20;0.20;;;18.80;99.90;;;;;;5056189;28;20043;-76
2023/08/08 11:29:05;;;;;;;0.10;0.10;;;18.70;99.90;;;;;;5062701;28;20047;-77
2023/08/08 11:31:32;;;;;;;0.20;0.20;;;18.70;99.90;;;;;;5050929;28;20063;-77
2023/08/08 11:33:59;;;;;;;0.43;0.43;;;18.60;99.90;;;;;;5048531;28;20049;-77
2023/08/08 11:36:29;;;;;;;0.30;0.30;;;18.70;99.90;;;;;;5065478;28;20123;-78
2023/08/08 11:38:56;;;;;;;0.20;0.20;;;18.70;99.90;;;;;;5071231;28;20039;-77
2023/08/08 11:41:23;;;;;;;0.20;0.20;;;18.80;99.90;;;;;;5045366;28;20043;-78
2023/08/08 11:43:51;;;;;;;0.30;0.30;;;18.70;99.90;;;;;;5049014;28;20052;-78
2023/08/08 11:46:17;;;;;;;0.30;0.30;;;18.60;99.90;;;;;;5047287;28;20084;-77
2023/08/08 11:48:46;;;;;;;0.30;0.30;;;18.70;99.90;;;;;;5066693;28;20045;-77
2023/08/08 11:51:15;;;;;;;0.30;0.30;;;19.00;99.90;;;;;;5064320;28;20040;-77
2023/08/08 11:53:53;;;;;;;0.20;0.20;;;19.10;99.90;;;;;;5063539;28;20043;-77
2023/08/08 11:56:21;;;;;;;0.25;0.25;;;19.10;99.90;;;;;;5033078;28;20484;-77
2023/08/08 11:58:53;;;;;;;0.20;0.20;;;19.10;99.90;;;;;;5065976;28;20067;-76
2023/08/08 12:01:21;;;;;;;0.30;0.30;;;19.10;99.90;;;;;;5050602;28;20105;-78
2023/08/08 12:03:48;;;;;;;0.20;0.20;;;19.30;99.90;;;;;;5084019;28;20042;-77
2023/08/08 12:06:17;;;;;;;0.30;0.30;;;19.50;99.90;;;;;;5064903;28;20189;-78
2023/08/08 12:08:44;;;;;;;0.20;0.20;;;19.70;99.90;;;;;;5058997;28;20386;-79
2023/08/08 12:11:11;;;;;;;0.85;0.35;;;19.70;99.90;;;;;;5058028;28;20048;-78
2023/08/08 12:13:39;;;;;;;0.30;0.30;;;19.70;99.90;;;;;;5047632;28;20079;-77
2023/08/08 12:16:06;;;;;;;0.32;0.32;;;19.70;99.90;;;;;;5046050;28;20060;-79
2023/08/08 12:18:32;;;;;;;0.15;0.15;;;19.50;99.90;;;;;;5062393;28;20170;-78
2023/08/08 12:20:58;;;;;;;0.20;0.20;;;19.20;99.90;;;;;;5059457;28;20561;-79
2023/08/08 12:23:26;;;;;;;;;;;18.90;99.90;;;;;;5069946;28;20040;-77
2023/08/08 12:25:53;;;;;;;0.20;0.20;;;18.30;99.90;;;;;;5064310;28;19915;-77
2023/08/08 12:28:24;;;;;;;0.30;0.30;;;18.30;99.90;;;;;;5069473;28;20062;-77
2023/08/08 12:30:50;;;;;;;0.50;0.50;;;18.00;99.90;;;;;;5048316;28;20489;-77
2023/08/08 12:33:15;;;;;;;0.30;0.30;;;18.00;99.90;;;;;;5063699;28;20161;-77
2023/08/08 12:35:41;;;;;;;0.30;0.30;;;18.10;99.90;;;;;;5068917;28;20044;-78
2023/08/08 12:38:07;;;;;;;;;;;18.20;99.90;;;;;;5049759;28;20043;-77
2023/08/08 12:40:33;;;;;;;0.20;0.20;;;18.20;99.90;;;;;;5069946;28;20288;-77
2023/08/08 12:42:59;;;;;;;0.28;0.28;;;18.20;99.90;;;;;;5052244;28;20094;-77
2023/08/08 12:45:25;;;;;;;6.40;0.55;;;18.30;99.90;;;;;;5054015;28;20451;-78
2023/08/08 12:47:51;;;;;;;;;;;18.40;99.90;;;;;;5069669;28;20079;-78
2023/08/08 12:50:17;;;;;;;0.40;0.40;;;18.50;99.90;;;;;;5065821;28;19958;-77
2023/08/08 12:52:42;;;;;;;;;;;18.70;99.90;;;;;;5070454;28;20051;-77
2023/08/08 12:55:11;;;;;;;0.20;0.20;;;19.00;99.90;;;;;;5059417;28;19931;-77
2023/08/08 12:57:38;;;;;;;0.20;0.20;;;19.10;99.90;;;;;;5051172;28;20035;-78
2023/08/08 13:00:05;;;;;;;0.60;0.60;;;19.20;99.90;;;;;;5066328;28;20036;-77